Time;durP1;ratioP1;P1;durP2;ratioP2;P2;SDS_P1;SDS_P2;PMS_P1;PMS_P2;Temp;Humidity;BMP_temperature;BMP_pressure;BME280_temperature;BME280_humidity;BME280_pressure;Samples;Min_cycle;Max_cycle;Signal;HPM_P1;HPM_P2
2022/04/27 00:00:19;;;;;;;12.05;5.13;;;7.90;99.90;;;;;;4993612;28;20126;-61
2022/04/27 00:02:45;;;;;;;13.82;5.93;;;7.80;99.90;;;;;;4992294;28;20105;-61
2022/04/27 00:05:11;;;;;;;12.77;5.20;;;7.80;99.90;;;;;;4987904;28;20482;-61
2022/04/27 00:07:36;;;;;;;9.73;4.55;;;7.70;99.90;;;;;;4994925;28;20030;-61
2022/04/27 00:10:05;;;;;;;15.43;6.07;;;7.70;99.90;;;;;;4986002;28;20023;-61
2022/04/27 00:12:30;;;;;;;16.15;4.40;;;7.80;99.90;;;;;;4989260;28;20556;-61
2022/04/27 00:14:57;;;;;;;10.27;3.88;;;7.70;99.90;;;;;;4987832;28;20065;-61
2022/04/27 00:17:22;;;;;;;11.90;4.53;;;7.70;99.90;;;;;;4986519;28;20069;-61
2022/04/27 00:19:48;;;;;;;11.02;4.20;;;7.70;99.90;;;;;;4986786;28;20034;-61
2022/04/27 00:22:16;;;;;;;9.13;4.40;;;7.60;99.90;;;;;;4987711;28;20033;-61
2022/04/27 00:24:42;;;;;;;17.60;5.45;;;7.60;99.90;;;;;;4989894;28;20034;-61
2022/04/27 00:27:07;;;;;;;12.25;4.80;;;7.60;99.90;;;;;;4991117;28;20440;-61
2022/04/27 00:29:33;;;;;;;11.75;4.88;;;7.50;99.90;;;;;;4984684;28;20154;-61
2022/04/27 00:31:58;;;;;;;12.50;5.40;;;7.50;99.90;;;;;;4987649;28;20065;-61
2022/04/27 00:34:25;;;;;;;11.30;4.30;;;7.60;99.90;;;;;;4967185;28;20050;-61
2022/04/27 00:36:50;;;;;;;14.48;5.68;;;7.60;99.90;;;;;;4989396;28;20481;-61
2022/04/27 00:39:17;;;;;;;11.55;5.00;;;7.60;99.90;;;;;;4989815;28;20033;-61
2022/04/27 00:41:59;;;;;;;11.70;4.55;;;7.50;99.90;;;;;;4990564;28;20501;-61
2022/04/27 00:44:32;;;;;;;9.60;4.28;;;7.50;99.90;;;;;;4987195;28;20022;-61
2022/04/27 00:46:58;;;;;;;11.45;5.05;;;7.50;99.90;;;;;;4988884;28;20092;-61
2022/04/27 00:49:27;;;;;;;12.38;4.50;;;7.60;99.90;;;;;;4987459;28;20037;-61
2022/04/27 00:51:54;;;;;;;15.50;5.25;;;7.50;99.90;;;;;;4986196;28;20034;-61
2022/04/27 00:54:22;;;;;;;24.20;5.53;;;7.40;99.90;;;;;;4983621;28;20045;-61
2022/04/27 00:56:49;;;;;;;11.93;4.75;;;7.50;99.90;;;;;;4986356;28;20108;-61
2022/04/27 00:59:15;;;;;;;12.43;3.90;;;7.50;99.90;;;;;;4983862;28;20045;-61
2022/04/27 01:01:41;;;;;;;13.23;5.30;;;7.30;99.90;;;;;;4981798;28;20032;-61
2022/04/27 01:04:07;;;;;;;16.25;4.57;;;7.10;99.90;;;;;;4985821;28;20382;-61
2022/04/27 01:06:38;;;;;;;13.38;5.22;;;7.20;99.90;;;;;;4984788;28;20054;-61
2022/04/27 01:09:04;;;;;;;10.82;4.43;;;7.00;99.90;;;;;;4982739;28;20026;-61
2022/04/27 01:11:33;;;;;;;14.82;5.10;;;6.90;99.90;;;;;;4986308;28;20430;-61
2022/04/27 01:13:58;;;;;;;10.90;4.38;;;6.90;99.90;;;;;;4982124;28;20042;-61
2022/04/27 01:16:25;;;;;;;12.45;4.57;;;6.80;99.90;;;;;;4985442;28;20077;-61
2022/04/27 01:18:51;;;;;;;10.70;4.07;;;6.70;99.90;;;;;;4989653;28;20014;-61
2022/04/27 01:21:17;;;;;;;12.73;4.72;;;6.80;99.90;;;;;;4988611;28;20393;-61
2022/04/27 01:23:43;;;;;;;17.73;4.53;;;6.80;99.90;;;;;;4987377;28;20510;-61
2022/04/27 01:26:08;;;;;;;9.27;3.47;;;6.80;99.90;;;;;;4986152;28;20023;-61
2022/04/27 01:28:36;;;;;;;12.98;4.50;;;6.80;99.90;;;;;;4983167;28;20045;-61
2022/04/27 01:31:04;;;;;;;10.77;4.10;;;6.80;99.90;;;;;;4986926;28;20125;-61
2022/04/27 01:33:30;;;;;;;10.85;4.68;;;6.70;99.90;;;;;;4985172;28;20037;-61
2022/04/27 01:35:58;;;;;;;7.55;3.33;;;6.70;99.90;;;;;;4982483;28;20035;-61
2022/04/27 01:38:24;;;;;;;14.10;4.22;;;6.80;99.90;;;;;;4985382;28;20144;-61
2022/04/27 01:40:53;;;;;;;8.15;4.05;;;6.70;99.90;;;;;;4984839;28;20538;-61
2022/04/27 01:43:19;;;;;;;9.52;3.85;;;6.60;99.90;;;;;;4982180;28;20035;-61
2022/04/27 01:45:45;;;;;;;8.63;3.70;;;6.50;99.90;;;;;;4980588;28;20031;-61
2022/04/27 01:48:11;;;;;;;9.80;4.10;;;6.40;99.90;;;;;;4987753;28;20101;-61
2022/04/27 01:50:38;;;;;;;7.60;3.22;;;6.50;99.90;;;;;;4984355;28;20022;-61
2022/04/27 01:55:49;;;;;;;9.23;3.90;;;6.50;99.90;;;;;;4982063;28;20560;-61
2022/04/27 01:58:15;;;;;;;24.23;4.25;;;6.40;99.90;;;;;;4983381;28;20026;-61
2022/04/27 02:00:40;;;;;;;9.45;4.03;;;6.50;99.90;;;;;;4986760;28;20025;-61
2022/04/27 02:03:06;;;;;;;16.45;4.13;;;6.70;99.90;;;;;;4987545;28;20042;-62
2022/04/27 02:05:32;;;;;;;14.30;5.05;;;6.60;99.90;;;;;;4986065;28;20030;-61
2022/04/27 02:07:57;;;;;;;11.57;3.92;;;6.60;99.90;;;;;;4985055;28;20519;-61
2022/04/27 02:10:23;;;;;;;12.02;3.67;;;6.50;99.90;;;;;;4985477;28;20123;-61
2022/04/27 02:12:49;;;;;;;10.98;3.50;;;6.40;99.90;;;;;;4984715;28;20087;-61
2022/04/27 02:15:15;;;;;;;9.88;4.00;;;6.50;99.90;;;;;;4984654;28;20037;-61
2022/04/27 02:17:40;;;;;;;9.80;3.70;;;6.40;99.90;;;;;;4984313;28;20612;-61
2022/04/27 02:20:07;;;;;;;9.38;4.15;;;6.40;99.90;;;;;;4984220;28;20152;-61
2022/04/27 02:22:36;;;;;;;17.20;5.47;;;6.40;99.90;;;;;;4983694;28;20014;-61
2022/04/27 02:25:02;;;;;;;11.82;4.05;;;6.30;99.90;;;;;;4980669;28;20030;-61
2022/04/27 02:27:28;;;;;;;7.28;3.22;;;6.10;99.90;;;;;;4982042;28;20362;-61
2022/04/27 02:29:55;;;;;;;10.35;3.97;;;6.30;99.90;;;;;;4982568;28;20034;-61
2022/04/27 02:32:20;;;;;;;16.48;5.25;;;6.00;99.90;;;;;;4984047;28;20050;-61
2022/04/27 02:34:46;;;;;;;10.90;4.07;;;5.90;99.90;;;;;;4984032;28;20030;-61
2022/04/27 02:37:12;;;;;;;12.93;4.10;;;5.90;99.90;;;;;;4983189;28;20061;-61
2022/04/27 02:39:37;;;;;;;11.10;5.07;;;5.70;99.90;;;;;;4984288;28;20108;-61
2022/04/27 02:42:03;;;;;;;8.93;3.97;;;5.60;99.90;;;;;;4986389;28;20030;-61
2022/04/27 02:44:29;;;;;;;9.00;4.25;;;5.60;99.90;;;;;;4982201;28;20030;-61
2022/04/27 02:46:55;;;;;;;8.43;3.60;;;5.50;99.90;;;;;;4985983;28;20038;-61
2022/04/27 02:52:06;;;;;;;20.38;4.68;;;5.60;99.90;;;;;;4982609;28;20041;-61
2022/04/27 02:54:32;;;;;;;11.13;4.47;;;5.60;99.90;;;;;;4983362;28;20032;-61
2022/04/27 02:56:57;;;;;;;9.65;3.63;;;5.60;99.90;;;;;;4985066;28;20034;-61
2022/04/27 02:59:23;;;;;;;8.85;3.92;;;5.70;99.90;;;;;;4982912;28;20537;-61
2022/04/27 03:01:48;;;;;;;19.90;4.65;;;5.70;99.90;;;;;;4983672;28;20022;-61
2022/04/27 03:04:14;;;;;;;11.40;4.22;;;5.70;99.90;;;;;;4984635;28;20064;-61
2022/04/27 03:06:40;;;;;;;9.73;3.80;;;5.70;99.90;;;;;;4985522;28;20026;-61
2022/04/27 03:09:05;;;;;;;12.70;4.95;;;5.70;99.90;;;;;;4988005;28;20084;-61
2022/04/27 03:11:31;;;;;;;10.73;3.95;;;5.80;99.90;;;;;;4984056;28;20034;-61
2022/04/27 03:13:57;;;;;;;9.07;4.00;;;5.90;99.90;;;;;;4986431;28;20545;-61
2022/04/27 03:16:22;;;;;;;31.08;5.25;;;5.80;99.90;;;;;;4985202;28;20375;-61
2022/04/27 03:18:48;;;;;;;10.50;4.05;;;5.80;99.90;;;;;;4988822;28;20080;-61
2022/04/27 03:21:13;;;;;;;9.18;3.20;;;5.80;99.90;;;;;;4984631;28;20478;-61
2022/04/27 03:23:39;;;;;;;11.10;4.22;;;5.90;99.90;;;;;;4989773;28;20073;-61
2022/04/27 03:26:05;;;;;;;10.05;4.78;;;6.00;99.90;;;;;;4990996;28;20479;-61
2022/04/27 03:28:31;;;;;;;7.72;3.78;;;6.00;99.90;;;;;;4985354;28;20030;-61
2022/04/27 03:30:57;;;;;;;16.65;4.00;;;6.10;99.90;;;;;;4985312;28;20096;-61
2022/04/27 03:33:22;;;;;;;9.93;3.45;;;6.10;99.90;;;;;;4985582;28;20065;-61
2022/04/27 03:35:48;;;;;;;9.07;4.07;;;6.30;99.90;;;;;;4985809;28;20037;-61
2022/04/27 03:38:15;;;;;;;10.13;4.75;;;6.30;99.90;;;;;;4987543;28;20027;-61
2022/04/27 03:40:46;;;;;;;12.18;4.95;;;6.30;99.90;;;;;;4987102;28;20026;-61
2022/04/27 03:43:12;;;;;;;10.48;4.25;;;6.10;99.90;;;;;;4987851;28;20054;-61
2022/04/27 03:45:37;;;;;;;14.10;4.72;;;6.10;99.90;;;;;;4985855;28;20521;-61
2022/04/27 03:48:03;;;;;;;14.05;4.35;;;6.00;99.90;;;;;;4987823;28;20085;-61
2022/04/27 03:50:29;;;;;;;14.25;4.32;;;6.10;99.90;;;;;;4987846;28;20478;-61
2022/04/27 03:52:54;;;;;;;10.75;4.45;;;5.90;99.90;;;;;;4987432;28;20639;-61
2022/04/27 03:55:20;;;;;;;15.95;5.93;;;6.10;99.90;;;;;;4987439;28;20534;-61
2022/04/27 03:57:46;;;;;;;12.10;4.60;;;6.00;99.90;;;;;;4984764;28;20030;-61
2022/04/27 04:00:12;;;;;;;14.05;5.10;;;5.90;99.90;;;;;;4987278;28;20696;-61
2022/04/27 04:02:37;;;;;;;9.23;4.00;;;5.90;99.90;;;;;;4987361;28;20025;-61
2022/04/27 04:05:05;;;;;;;9.70;3.88;;;5.90;99.90;;;;;;4990460;28;20062;-61
2022/04/27 04:07:31;;;;;;;12.32;4.35;;;5.90;99.90;;;;;;4990125;28;20565;-61
2022/04/27 04:09:57;;;;;;;10.90;4.85;;;6.00;99.90;;;;;;4987173;28;20129;-61
2022/04/27 04:12:22;;;;;;;11.30;4.35;;;6.00;99.90;;;;;;4986242;28;20604;-61
2022/04/27 04:14:48;;;;;;;9.45;3.75;;;6.00;99.90;;;;;;4987999;28;20150;-61
2022/04/27 04:17:13;;;;;;;12.35;3.90;;;6.20;99.90;;;;;;4983378;28;20077;-61
2022/04/27 04:19:39;;;;;;;10.82;4.40;;;6.10;99.90;;;;;;4986191;28;20053;-61
2022/04/27 04:22:05;;;;;;;12.60;5.03;;;6.10;99.90;;;;;;4985062;28;20045;-61
2022/04/27 04:24:31;;;;;;;12.45;4.20;;;6.10;99.90;;;;;;4984167;28;20279;-61
2022/04/27 04:29:41;;;;;;;17.77;5.78;;;6.00;99.90;;;;;;4983325;28;20671;-61
2022/04/27 04:32:07;;;;;;;12.88;4.93;;;6.10;99.90;;;;;;4984821;28;20136;-61
2022/04/27 04:34:33;;;;;;;12.68;5.72;;;6.10;99.90;;;;;;4984192;28;20027;-61
2022/04/27 04:36:58;;;;;;;10.48;4.72;;;6.10;99.90;;;;;;4986547;28;20496;-61
2022/04/27 04:39:24;;;;;;;11.90;5.20;;;6.10;99.90;;;;;;4984262;28;20574;-61
2022/04/27 04:41:49;;;;;;;12.77;5.57;;;6.10;99.90;;;;;;5016910;28;20038;-61
2022/04/27 04:44:15;;;;;;;23.58;6.47;;;6.10;99.90;;;;;;4985493;28;20062;-61
2022/04/27 04:46:41;;;;;;;19.10;5.22;;;6.00;99.90;;;;;;4988400;28;20383;-61
2022/04/27 04:49:06;;;;;;;14.52;5.15;;;6.10;99.90;;;;;;4987366;28;20813;-62
2022/04/27 04:51:34;;;;;;;10.68;4.40;;;6.00;99.90;;;;;;4985550;28;20467;-61
2022/04/27 04:53:59;;;;;;;14.18;6.20;;;5.90;99.90;;;;;;4986540;28;20483;-61
2022/04/27 04:56:25;;;;;;;10.93;3.97;;;5.90;99.90;;;;;;4985731;28;20033;-61
2022/04/27 04:58:50;;;;;;;16.05;4.90;;;5.80;99.90;;;;;;4983026;28;20112;-61
2022/04/27 05:01:16;;;;;;;11.70;4.53;;;5.80;99.90;;;;;;4983894;28;20030;-61
2022/04/27 05:03:41;;;;;;;14.52;4.95;;;5.70;99.90;;;;;;4985634;28;20117;-62
2022/04/27 05:06:07;;;;;;;12.73;5.68;;;5.60;99.90;;;;;;4986074;28;20018;-61
2022/04/27 05:08:33;;;;;;;12.35;5.55;;;5.70;99.90;;;;;;4985602;28;20072;-61
2022/04/27 05:10:58;;;;;;;14.52;6.00;;;5.80;99.90;;;;;;4984242;28;20034;-61
2022/04/27 05:13:24;;;;;;;12.85;6.05;;;5.60;99.90;;;;;;4980847;28;20037;-60
2022/04/27 05:15:50;;;;;;;13.73;5.25;;;5.50;99.90;;;;;;4985495;28;20034;-61
2022/04/27 05:18:19;;;;;;;13.15;4.55;;;5.60;99.90;;;;;;4983585;28;20530;-61
2022/04/27 05:20:45;;;;;;;18.77;5.18;;;5.60;99.90;;;;;;4983827;28;20026;-61
2022/04/27 05:23:14;;;;;;;14.23;5.95;;;5.50;99.90;;;;;;4986038;28;20088;-61
2022/04/27 05:25:40;;;;;;;7.50;3.55;;;5.50;99.90;;;;;;4986684;28;20479;-61
2022/04/27 05:28:06;;;;;;;11.48;5.00;;;5.40;99.90;;;;;;4982079;28;20097;-61
2022/04/27 05:33:23;;;;;;;12.00;5.00;;;5.40;99.90;;;;;;4985663;28;20053;-61
2022/04/27 05:35:49;;;;;;;10.75;4.45;;;5.40;99.90;;;;;;4985273;28;20802;-61
2022/04/27 05:38:15;;;;;;;11.73;4.70;;;5.40;99.90;;;;;;4986130;28;20037;-61
2022/04/27 05:40:43;;;;;;;12.50;5.80;;;5.40;99.90;;;;;;4985178;28;20026;-61
2022/04/27 05:43:09;;;;;;;13.45;4.72;;;5.50;99.90;;;;;;4986045;28;20030;-61
2022/04/27 05:45:35;;;;;;;13.63;5.47;;;5.70;99.90;;;;;;4983352;28;20045;-61
2022/04/27 05:48:01;;;;;;;14.77;5.68;;;5.70;99.90;;;;;;4985810;28;20029;-61
2022/04/27 05:50:27;;;;;;;13.15;5.05;;;5.70;99.90;;;;;;4984945;28;20022;-61
2022/04/27 05:52:58;;;;;;;15.05;5.40;;;5.90;99.90;;;;;;4975185;28;20038;-61
2022/04/27 05:55:24;;;;;;;12.93;4.78;;;6.00;99.90;;;;;;4987512;28;20478;-61
2022/04/27 05:57:51;;;;;;;14.98;4.50;;;6.10;99.90;;;;;;4983586;28;20048;-61
2022/04/27 06:00:17;;;;;;;16.85;7.10;;;6.20;99.90;;;;;;4987194;28;20034;-61
2022/04/27 06:02:43;;;;;;;13.18;5.55;;;6.20;99.90;;;;;;4988288;28;20030;-61
2022/04/27 06:05:10;;;;;;;14.35;5.47;;;6.30;99.90;;;;;;4985338;28;20744;-61
2022/04/27 06:07:36;;;;;;;16.20;6.43;;;6.40;99.90;;;;;;4983142;28;20019;-61
2022/04/27 06:10:11;;;;;;;13.65;5.93;;;6.40;99.90;;;;;;4987375;28;20015;-61
2022/04/27 06:12:47;;;;;;;17.02;6.35;;;6.50;99.90;;;;;;4981811;28;20462;-61
2022/04/27 06:15:14;;;;;;;10.65;5.50;;;6.60;99.90;;;;;;4981407;28;20018;-61
2022/04/27 06:17:40;;;;;;;11.48;5.10;;;6.70;99.90;;;;;;4984073;28;20019;-61
2022/04/27 06:20:06;;;;;;;16.92;6.40;;;6.80;99.90;;;;;;4984119;28;20023;-61
2022/04/27 06:22:31;;;;;;;13.88;6.10;;;6.80;99.90;;;;;;4980139;28;20037;-61
2022/04/27 06:24:57;;;;;;;13.63;6.30;;;6.90;99.90;;;;;;4982380;28;20035;-61
2022/04/27 06:27:22;;;;;;;14.30;5.70;;;7.00;99.90;;;;;;4984656;28;20022;-62
2022/04/27 06:29:48;;;;;;;15.13;6.43;;;7.20;99.90;;;;;;4975979;28;20101;-61
2022/04/27 06:32:14;;;;;;;20.55;6.82;;;7.40;99.90;;;;;;4992130;28;20088;-61
2022/04/27 06:34:39;;;;;;;18.40;5.30;;;7.20;99.90;;;;;;4984936;28;20100;-61
2022/04/27 06:37:05;;;;;;;19.80;6.28;;;7.20;99.90;;;;;;4984437;28;20070;-62
2022/04/27 06:39:30;;;;;;;13.18;5.90;;;7.30;99.90;;;;;;4985344;28;20425;-62
2022/04/27 06:41:56;;;;;;;9.48;4.63;;;7.40;99.90;;;;;;4983808;28;20031;-61
2022/04/27 06:44:22;;;;;;;14.70;5.97;;;7.60;99.90;;;;;;4991752;28;20475;-61
2022/04/27 06:46:47;;;;;;;15.38;5.45;;;7.70;99.90;;;;;;4984796;28;20550;-62
2022/04/27 06:49:13;;;;;;;15.85;5.72;;;7.70;99.90;;;;;;4987046;28;20034;-62
2022/04/27 06:51:38;;;;;;;14.95;6.43;;;7.80;99.90;;;;;;4983581;28;20944;-61
2022/04/27 06:54:04;;;;;;;13.18;4.82;;;7.90;99.90;;;;;;4983507;28;20056;-61
2022/04/27 06:56:30;;;;;;;13.18;5.18;;;8.00;99.90;;;;;;4984748;28;20482;-62
2022/04/27 06:58:56;;;;;;;21.88;5.93;;;8.20;99.90;;;;;;4984166;28;20044;-62
2022/04/27 07:01:22;;;;;;;11.32;4.82;;;8.40;99.90;;;;;;4987001;28;20264;-61
2022/04/27 07:03:54;;;;;;;14.15;5.55;;;8.50;99.90;;;;;;4988627;28;20478;-61
2022/04/27 07:06:21;;;;;;;16.35;6.20;;;8.50;99.90;;;;;;4986892;28;20140;-62
2022/04/27 07:08:47;;;;;;;13.02;5.40;;;8.60;99.90;;;;;;4986935;28;20046;-61
2022/04/27 07:11:13;;;;;;;14.05;5.25;;;8.70;99.90;;;;;;4986443;28;20451;-61
2022/04/27 07:13:38;;;;;;;10.63;3.78;;;8.70;99.90;;;;;;4991205;28;20057;-61
2022/04/27 07:16:05;;;;;;;15.20;5.28;;;8.90;99.90;;;;;;4982248;28;20395;-62
2022/04/27 07:18:32;;;;;;;10.13;4.15;;;9.10;99.90;;;;;;4982646;28;20373;-62
2022/04/27 07:20:58;;;;;;;10.38;4.35;;;9.20;99.90;;;;;;4987596;28;20062;-61
2022/04/27 07:23:23;;;;;;;8.63;4.10;;;9.10;99.90;;;;;;4986892;28;20072;-61
2022/04/27 07:25:49;;;;;;;11.57;4.32;;;9.10;99.90;;;;;;4985690;28;20393;-61
2022/04/27 07:28:15;;;;;;;10.63;4.22;;;9.30;99.90;;;;;;4985177;28;20026;-61
2022/04/27 07:30:40;;;;;;;16.17;4.28;;;9.50;99.90;;;;;;4976616;28;20557;-63
2022/04/27 07:33:06;;;;;;;12.40;4.45;;;9.60;99.90;;;;;;4982132;28;20038;-61
2022/04/27 07:35:31;;;;;;;10.82;4.35;;;9.70;99.90;;;;;;4982313;28;20041;-61
2022/04/27 07:37:57;;;;;;;10.90;4.13;;;9.90;99.90;;;;;;4970698;28;20054;-62
2022/04/27 07:40:22;;;;;;;12.65;4.97;;;9.90;99.90;;;;;;4970835;28;20031;-61
2022/04/27 07:42:48;;;;;;;9.63;4.05;;;9.80;99.90;;;;;;4969306;28;20053;-61
2022/04/27 07:45:15;;;;;;;9.15;3.65;;;9.80;99.90;;;;;;4976184;28;20371;-61
2022/04/27 07:47:43;;;;;;;10.57;4.13;;;9.90;99.90;;;;;;4974070;28;20034;-61
2022/04/27 07:50:11;;;;;;;13.23;3.90;;;9.90;99.90;;;;;;4973869;28;20023;-61
2022/04/27 07:52:37;;;;;;;14.35;4.10;;;10.10;99.90;;;;;;4971463;28;20034;-61
2022/04/27 07:55:03;;;;;;;8.73;3.20;;;10.10;99.90;;;;;;4973393;28;20525;-61
2022/04/27 07:57:30;;;;;;;9.18;4.07;;;10.20;99.90;;;;;;4972504;28;20026;-61
2022/04/27 07:59:56;;;;;;;10.82;3.85;;;10.40;99.90;;;;;;4971259;28;20589;-61
2022/04/27 08:02:22;;;;;;;13.10;3.63;;;10.40;99.90;;;;;;4974198;28;20030;-62
2022/04/27 08:04:47;;;;;;;13.10;4.00;;;10.50;99.90;;;;;;4976424;28;20562;-61
2022/04/27 08:07:14;;;;;;;9.88;3.85;;;10.50;99.90;;;;;;4973510;28;20030;-61
2022/04/27 08:09:39;;;;;;;11.63;4.35;;;10.70;99.90;;;;;;4982698;28;20048;-63
2022/04/27 08:12:05;;;;;;;13.35;4.45;;;11.10;99.90;;;;;;4975567;28;20778;-62
2022/04/27 08:14:31;;;;;;;8.75;3.30;;;11.70;99.90;;;;;;4974020;28;20042;-61
2022/04/27 08:16:59;;;;;;;10.35;3.63;;;11.70;99.90;;;;;;4975495;28;20552;-62
2022/04/27 08:19:25;;;;;;;10.23;3.22;;;12.20;99.90;;;;;;4975904;28;20177;-61
2022/04/27 08:21:50;;;;;;;9.02;3.15;;;12.20;99.90;;;;;;4973932;28;20558;-62
2022/04/27 08:24:19;;;;;;;15.65;3.65;;;12.60;99.90;;;;;;4973048;28;20030;-62
2022/04/27 08:26:45;;;;;;;11.35;2.55;;;13.00;99.90;;;;;;4972769;28;20089;-62
2022/04/27 08:29:11;;;;;;;8.88;3.08;;;14.20;99.90;;;;;;4970888;28;20694;-61
2022/04/27 08:31:37;;;;;;;7.00;2.40;;;15.30;99.90;;;;;;4976618;28;20053;-63
2022/04/27 08:34:02;;;;;;;9.57;3.08;;;13.90;99.90;;;;;;4974094;28;20027;-62
2022/04/27 08:36:28;;;;;;;11.75;2.63;;;14.50;99.90;;;;;;4973752;28;20031;-62
2022/04/27 08:38:54;;;;;;;7.95;2.47;;;15.50;99.90;;;;;;4972977;28;20041;-62
2022/04/27 08:41:20;;;;;;;9.52;3.05;;;15.90;99.90;;;;;;4971989;28;20026;-62
2022/04/27 08:43:46;;;;;;;6.72;2.60;;;15.80;99.90;;;;;;4977285;28;20049;-62
2022/04/27 08:46:14;;;;;;;8.15;2.80;;;15.00;99.90;;;;;;4975652;28;20031;-62
2022/04/27 08:48:40;;;;;;;8.82;3.00;;;14.90;99.90;;;;;;4976997;28;20030;-62
2022/04/27 08:51:06;;;;;;;8.60;3.25;;;16.50;99.90;;;;;;4975066;28;20053;-62
2022/04/27 08:53:33;;;;;;;7.30;2.45;;;16.10;99.90;;;;;;4976144;28;20034;-62
2022/04/27 08:55:59;;;;;;;9.13;2.75;;;17.50;98.10;;;;;;4973740;28;20015;-62
2022/04/27 08:58:25;;;;;;;10.40;3.20;;;17.10;96.10;;;;;;4970567;28;20089;-62
2022/04/27 09:00:51;;;;;;;6.88;2.20;;;14.90;99.10;;;;;;4971793;28;20057;-62
2022/04/27 09:03:31;;;;;;;10.07;2.88;;;15.50;98.10;;;;;;4975536;28;20042;-62
2022/04/27 09:06:01;;;;;;;7.45;2.70;;;14.20;98.90;;;;;;4975373;28;20544;-62
2022/04/27 09:08:45;;;;;;;11.02;3.53;;;14.90;99.90;;;;;;4970750;28;21133;-62
2022/04/27 09:11:20;;;;;;;12.15;3.28;;;15.00;99.30;;;;;;4976230;28;20030;-62
2022/04/27 09:13:55;;;;;;;8.60;2.92;;;14.90;99.90;;;;;;4971439;28;20121;-62
2022/04/27 09:16:24;;;;;;;10.32;3.03;;;15.80;97.10;;;;;;4972718;28;20035;-62
2022/04/27 09:22:03;;;;;;;8.75;2.83;;;17.40;95.30;;;;;;4975343;28;20041;-62
2022/04/27 09:24:51;;;;;;;8.90;3.10;;;16.50;97.00;;;;;;4973655;28;20900;-62
2022/04/27 09:27:18;;;;;;;10.00;3.45;;;16.60;96.70;;;;;;4973466;28;20566;-62
2022/04/27 09:30:01;;;;;;;9.82;3.30;;;16.50;94.30;;;;;;4973646;28;20027;-62
2022/04/27 09:32:28;;;;;;;9.85;2.90;;;15.90;93.40;;;;;;4972448;28;20120;-62
2022/04/27 09:34:55;;;;;;;11.40;3.65;;;18.00;92.80;;;;;;4970509;28;20048;-63
2022/04/27 09:37:24;;;;;;;9.48;3.45;;;18.60;90.40;;;;;;4973778;28;20045;-62
2022/04/27 09:40:02;;;;;;;12.68;3.58;;;18.30;89.60;;;;;;4972403;28;20438;-62
2022/04/27 09:42:32;;;;;;;11.60;3.10;;;17.30;95.20;;;;;;4975627;28;20034;-62
2022/04/27 09:45:14;;;;;;;9.35;3.15;;;16.60;94.10;;;;;;4973227;28;20590;-62
2022/04/27 09:47:57;;;;;;;12.30;3.45;;;17.60;91.50;;;;;;4973533;28;20584;-62
2022/04/27 09:50:24;;;;;;;12.73;3.92;;;18.60;90.50;;;;;;4972316;28;20026;-63
2022/04/27 09:52:50;;;;;;;11.02;3.83;;;18.00;90.00;;;;;;4973976;28;20034;-62
2022/04/27 09:55:16;;;;;;;10.40;4.18;;;16.80;92.70;;;;;;4972859;28;20058;-63
2022/04/27 09:57:42;;;;;;;11.55;4.35;;;17.10;92.00;;;;;;4976606;28;20564;-63
2022/04/27 10:00:09;;;;;;;11.40;4.00;;;17.40;90.30;;;;;;4971964;28;20398;-62
2022/04/27 10:02:40;;;;;;;9.27;3.55;;;17.20;90.20;;;;;;4978814;28;20030;-62
2022/04/27 10:05:06;;;;;;;11.18;3.63;;;15.90;93.70;;;;;;4976932;28;20018;-62
2022/04/27 10:07:34;;;;;;;13.73;4.13;;;17.40;90.70;;;;;;4975257;28;20502;-62
2022/04/27 10:09:59;;;;;;;9.38;3.15;;;18.10;90.10;;;;;;4974588;28;20048;-63
2022/04/27 10:12:25;;;;;;;11.90;3.92;;;18.50;89.50;;;;;;4977023;28;20505;-63
2022/04/27 10:14:51;;;;;;;11.07;3.70;;;19.30;88.40;;;;;;4976036;28;20030;-63
2022/04/27 10:17:17;;;;;;;11.40;3.90;;;20.70;85.40;;;;;;4975094;28;20041;-62
2022/04/27 10:19:47;;;;;;;12.88;4.18;;;19.40;84.30;;;;;;4983747;28;20034;-62
2022/04/27 10:22:27;;;;;;;13.63;4.93;;;19.60;91.30;;;;;;4997328;28;20125;-62
2022/04/27 10:24:54;;;;;;;;;;;17.30;90.20;;;;;;4981634;28;20105;-62
2022/04/27 10:27:22;;;;;;;11.27;4.30;;;18.10;89.50;;;;;;4984501;28;19921;-62
2022/04/27 10:29:52;;;;;;;13.85;3.85;;;18.50;88.10;;;;;;4982561;28;20532;-62
2022/04/27 10:32:40;;;;;;;10.02;3.58;;;19.50;87.60;;;;;;4982072;28;20113;-62
2022/04/27 10:35:11;;;;;;;11.43;4.20;;;21.10;85.00;;;;;;4983370;28;20037;-62
2022/04/27 10:37:59;;;;;;;11.25;3.78;;;20.00;86.80;;;;;;4984195;28;20056;-62
2022/04/27 10:40:39;;;;;;;12.52;4.35;;;20.00;81.70;;;;;;4984115;28;20084;-62
2022/04/27 10:43:07;;;;;;;11.18;4.47;;;20.00;83.70;;;;;;4977757;28;20034;-62
2022/04/27 10:45:44;;;;;;;11.35;4.28;;;18.90;82.50;;;;;;4983361;28;20433;-62
2022/04/27 10:48:15;;;;;;;10.90;4.28;;;18.00;86.60;;;;;;4980908;28;20022;-62
2022/04/27 10:51:07;;;;;;;12.80;4.13;;;18.40;83.50;;;;;;4986750;28;20022;-62
2022/04/27 10:53:48;;;;;;;10.60;3.58;;;19.60;82.40;;;;;;4985532;28;20046;-62
2022/04/27 10:56:24;;;;;;;11.10;3.75;;;19.30;83.80;;;;;;4981449;28;20117;-62
2022/04/27 10:58:50;;;;;;;10.90;3.70;;;20.10;78.60;;;;;;4977139;28;20093;-62
2022/04/27 11:01:19;;;;;;;10.23;4.20;;;20.50;77.00;;;;;;4983137;28;20049;-62
2022/04/27 11:03:57;;;;;;;10.63;4.10;;;20.00;76.40;;;;;;4980574;28;20093;-62
2022/04/27 11:06:23;;;;;;;10.55;4.20;;;18.60;84.30;;;;;;4980371;28;20161;-62
2022/04/27 11:09:16;;;;;;;13.10;4.43;;;17.70;86.60;;;;;;4979658;28;20050;-62
2022/04/27 11:11:54;;;;;;;11.60;4.60;;;19.50;81.50;;;;;;4979019;28;20071;-62
2022/04/27 11:14:21;;;;;;;11.38;4.30;;;20.00;85.50;;;;;;4982624;28;20026;-62
2022/04/27 11:16:51;;;;;;;13.60;4.18;;;22.30;75.30;;;;;;4980088;28;20037;-62
2022/04/27 11:19:17;;;;;;;10.13;3.70;;;21.20;83.50;;;;;;4987012;28;20034;-62
2022/04/27 11:21:42;;;;;;;12.10;3.95;;;24.70;72.00;;;;;;4984809;28;20035;-62
2022/04/27 11:24:11;;;;;;;13.65;4.63;;;;;;;;;;4983165;28;20041;-62
2022/04/27 11:26:44;;;;;;;12.38;3.83;;;20.20;75.00;;;;;;4981027;28;20022;-62
2022/04/27 11:29:12;;;;;;;10.15;3.58;;;21.20;79.50;;;;;;4984731;28;20104;-62
2022/04/27 11:31:38;;;;;;;11.05;5.05;;;23.10;76.60;;;;;;4987617;28;20128;-62
2022/04/27 11:34:25;;;;;;;11.32;4.22;;;20.00;73.30;;;;;;4990029;28;20030;-62
2022/04/27 11:36:52;;;;;;;10.77;3.88;;;18.30;84.40;;;;;;4987822;28;20178;-62
2022/04/27 11:39:22;;;;;;;11.32;4.22;;;20.60;83.70;;;;;;4994045;28;20065;-62
2022/04/27 11:42:00;;;;;;;9.43;3.92;;;22.60;71.70;;;;;;4988703;28;20528;-62
2022/04/27 11:44:28;;;;;;;10.50;4.22;;;20.80;73.80;;;;;;4984634;28;20034;-62
2022/04/27 11:46:54;;;;;;;11.35;4.72;;;22.10;75.00;;;;;;4987555;28;20026;-62
2022/04/27 11:49:21;;;;;;;11.10;4.00;;;20.70;73.40;;;;;;4985656;28;20030;-62
2022/04/27 11:51:47;;;;;;;8.93;3.58;;;22.10;71.40;;;;;;4987361;28;20019;-62
2022/04/27 11:54:29;;;;;;;9.52;3.88;;;21.90;71.90;;;;;;4984366;28;20772;-62
2022/04/27 11:57:01;;;;;;;10.57;4.15;;;22.70;69.30;;;;;;4982601;28;20085;-62
2022/04/27 11:59:41;;;;;;;9.93;3.40;;;22.30;69.20;;;;;;4984294;28;20080;-62
2022/04/27 12:02:08;;;;;;;11.65;3.58;;;22.00;70.20;;;;;;4982409;28;20081;-62
2022/04/27 12:04:38;;;;;;;12.63;4.15;;;22.90;69.80;;;;;;4986309;28;20037;-62
2022/04/27 12:07:13;;;;;;;;;;;23.00;71.00;;;;;;4987216;28;20050;-62
2022/04/27 12:09:38;;;;;;;12.10;4.53;;;19.30;75.60;;;;;;4987080;28;20301;-62
2022/04/27 12:12:09;;;;;;;12.43;4.60;;;19.00;78.30;;;;;;4988232;28;20040;-62
2022/04/27 12:14:37;;;;;;;13.00;4.60;;;18.80;79.50;;;;;;4990573;28;20077;-62
2022/04/27 12:17:02;;;;;;;16.00;5.03;;;18.70;81.60;;;;;;4985466;28;20506;-62
2022/04/27 12:19:28;;;;;;;15.10;4.15;;;19.70;77.40;;;;;;4982787;28;20054;-62
2022/04/27 12:22:14;;;;;;;14.13;5.22;;;20.20;74.80;;;;;;4987989;28;20038;-62
2022/04/27 12:24:46;;;;;;;13.80;4.82;;;18.60;78.10;;;;;;4982856;28;20474;-62
2022/04/27 12:27:23;;;;;;;11.32;4.78;;;18.40;77.90;;;;;;4986920;28;20650;-62
2022/04/27 12:29:48;;;;;;;13.40;5.65;;;18.40;77.00;;;;;;4982731;28;20533;-62
2022/04/27 12:32:14;;;;;;;13.65;5.18;;;18.00;80.20;;;;;;4985308;28;20061;-62
2022/04/27 12:37:31;;;;;;;13.73;5.32;;;18.40;82.90;;;;;;4987481;28;20044;-63
2022/04/27 12:40:10;;;;;;;12.15;4.82;;;18.30;76.80;;;;;;4985587;28;20038;-62
2022/04/27 12:42:37;;;;;;;10.63;4.18;;;19.30;79.10;;;;;;4980918;28;20022;-62
2022/04/27 12:45:08;;;;;;;14.02;4.40;;;21.60;76.40;;;;;;4987311;28;20213;-62
2022/04/27 12:47:45;;;;;;;11.13;4.35;;;22.70;75.30;;;;;;4984415;28;20450;-62
2022/04/27 12:50:11;;;;;;;11.63;4.88;;;20.80;76.50;;;;;;4983149;28;20029;-62
2022/04/27 12:52:37;;;;;;;15.73;6.28;;;19.50;78.10;;;;;;4985476;28;20387;-62
2022/04/27 12:55:10;;;;;;;12.60;5.35;;;17.70;81.20;;;;;;4988520;28;20041;-62
2022/04/27 12:57:42;;;;;;;13.50;5.15;;;18.90;78.10;;;;;;4986369;28;20601;-62
2022/04/27 13:00:08;;;;;;;14.40;5.57;;;18.60;79.60;;;;;;4984473;28;20061;-63
2022/04/27 13:02:34;;;;;;;14.48;5.03;;;18.70;80.30;;;;;;4989016;28;20038;-62
2022/04/27 13:05:00;;;;;;;13.75;5.60;;;19.00;78.60;;;;;;4985911;28;20430;-62